sensor_id;sensor_type;location;lat;lon;timestamp;temperature;humidity
3648;DHT22;1840;48.892;15.312;2023-07-30T00:00:12;18.80;93.50
3648;DHT22;1840;48.892;15.312;2023-07-30T00:02:40;18.70;93.60
3648;DHT22;1840;48.892;15.312;2023-07-30T00:05:08;18.60;93.70
3648;DHT22;1840;48.892;15.312;2023-07-30T00:07:37;18.60;93.80
3648;DHT22;1840;48.892;15.312;2023-07-30T00:10:06;18.60;93.70
3648;DHT22;1840;48.892;15.312;2023-07-30T00:12:35;18.60;93.70
3648;DHT22;1840;48.892;15.312;2023-07-30T00:15:04;18.60;93.70
3648;DHT22;1840;48.892;15.312;2023-07-30T00:17:32;18.70;93.60
3648;DHT22;1840;48.892;15.312;2023-07-30T00:20:00;18.60;93.70
3648;DHT22;1840;48.892;15.312;2023-07-30T00:22:28;18.50;94.00
3648;DHT22;1840;48.892;15.312;2023-07-30T00:24:57;18.60;93.80
3648;DHT22;1840;48.892;15.312;2023-07-30T00:27:25;18.70;93.80
3648;DHT22;1840;48.892;15.312;2023-07-30T00:29:53;18.60;93.90
3648;DHT22;1840;48.892;15.312;2023-07-30T00:32:21;18.60;93.70
3648;DHT22;1840;48.892;15.312;2023-07-30T00:34:50;18.70;93.70
3648;DHT22;1840;48.892;15.312;2023-07-30T00:37:18;18.70;93.80
3648;DHT22;1840;48.892;15.312;2023-07-30T00:39:46;18.70;93.70
3648;DHT22;1840;48.892;15.312;2023-07-30T00:42:15;18.70;93.60
3648;DHT22;1840;48.892;15.312;2023-07-30T00:44:43;18.70;93.60
3648;DHT22;1840;48.892;15.312;2023-07-30T00:47:11;18.70;93.60
3648;DHT22;1840;48.892;15.312;2023-07-30T00:49:39;18.70;93.60
3648;DHT22;1840;48.892;15.312;2023-07-30T00:52:08;18.70;93.60
3648;DHT22;1840;48.892;15.312;2023-07-30T00:54:36;18.60;93.50
3648;DHT22;1840;48.892;15.312;2023-07-30T00:57:05;18.60;93.50
3648;DHT22;1840;48.892;15.312;2023-07-30T00:59:35;18.60;93.50
3648;DHT22;1840;48.892;15.312;2023-07-30T01:02:04;18.60;93.40
3648;DHT22;1840;48.892;15.312;2023-07-30T01:04:32;18.60;93.40
3648;DHT22;1840;48.892;15.312;2023-07-30T01:07:00;18.60;93.40
3648;DHT22;1840;48.892;15.312;2023-07-30T01:09:29;18.60;93.40
3648;DHT22;1840;48.892;15.312;2023-07-30T01:11:58;18.60;93.40
3648;DHT22;1840;48.892;15.312;2023-07-30T01:14:27;18.60;93.50
3648;DHT22;1840;48.892;15.312;2023-07-30T01:16:56;18.50;93.60
3648;DHT22;1840;48.892;15.312;2023-07-30T01:19:24;18.40;93.70
3648;DHT22;1840;48.892;15.312;2023-07-30T01:21:54;18.30;93.80
3648;DHT22;1840;48.892;15.312;2023-07-30T01:24:22;18.20;94.10
3648;DHT22;1840;48.892;15.312;2023-07-30T01:26:55;18.10;94.20
3648;DHT22;1840;48.892;15.312;2023-07-30T01:29:28;18.10;94.20
3648;DHT22;1840;48.892;15.312;2023-07-30T01:32:02;18.00;94.10
3648;DHT22;1840;48.892;15.312;2023-07-30T01:34:35;18.00;94.20
3648;DHT22;1840;48.892;15.312;2023-07-30T01:37:05;17.90;94.20
3648;DHT22;1840;48.892;15.312;2023-07-30T01:39:36;17.90;94.30
3648;DHT22;1840;48.892;15.312;2023-07-30T01:42:05;17.90;94.20
3648;DHT22;1840;48.892;15.312;2023-07-30T01:44:33;17.80;94.10
3648;DHT22;1840;48.892;15.312;2023-07-30T01:47:01;17.80;94.10
3648;DHT22;1840;48.892;15.312;2023-07-30T01:49:29;17.70;94.10
3648;DHT22;1840;48.892;15.312;2023-07-30T01:51:57;17.70;94.20
3648;DHT22;1840;48.892;15.312;2023-07-30T01:54:26;17.70;94.20
3648;DHT22;1840;48.892;15.312;2023-07-30T01:56:54;17.60;94.30
3648;DHT22;1840;48.892;15.312;2023-07-30T01:59:23;17.60;94.30
3648;DHT22;1840;48.892;15.312;2023-07-30T02:01:51;17.50;94.40
3648;DHT22;1840;48.892;15.312;2023-07-30T02:04:19;17.50;94.50
3648;DHT22;1840;48.892;15.312;2023-07-30T02:06:47;17.50;94.60
3648;DHT22;1840;48.892;15.312;2023-07-30T02:09:15;17.50;94.60
3648;DHT22;1840;48.892;15.312;2023-07-30T02:11:44;17.30;94.50
3648;DHT22;1840;48.892;15.312;2023-07-30T02:14:12;17.30;94.60
3648;DHT22;1840;48.892;15.312;2023-07-30T02:16:40;17.40;94.60
3648;DHT22;1840;48.892;15.312;2023-07-30T02:19:08;17.20;94.40
3648;DHT22;1840;48.892;15.312;2023-07-30T02:21:36;17.10;94.30
3648;DHT22;1840;48.892;15.312;2023-07-30T02:24:09;17.00;94.20
3648;DHT22;1840;48.892;15.312;2023-07-30T02:26:38;17.00;94.40
3648;DHT22;1840;48.892;15.312;2023-07-30T02:29:08;17.00;94.40
3648;DHT22;1840;48.892;15.312;2023-07-30T02:31:36;16.90;94.50
3648;DHT22;1840;48.892;15.312;2023-07-30T02:34:04;16.80;94.60
3648;DHT22;1840;48.892;15.312;2023-07-30T02:36:33;16.80;94.90
3648;DHT22;1840;48.892;15.312;2023-07-30T02:39:01;16.80;95.00
3648;DHT22;1840;48.892;15.312;2023-07-30T02:41:29;16.70;95.10
3648;DHT22;1840;48.892;15.312;2023-07-30T02:43:57;16.70;95.40
3648;DHT22;1840;48.892;15.312;2023-07-30T02:46:27;16.70;95.50
3648;DHT22;1840;48.892;15.312;2023-07-30T02:48:55;16.70;95.70
3648;DHT22;1840;48.892;15.312;2023-07-30T02:51:23;16.70;95.60
3648;DHT22;1840;48.892;15.312;2023-07-30T02:53:52;16.60;95.60
3648;DHT22;1840;48.892;15.312;2023-07-30T02:56:20;16.70;95.70
3648;DHT22;1840;48.892;15.312;2023-07-30T02:58:48;16.70;96.00
3648;DHT22;1840;48.892;15.312;2023-07-30T03:01:16;16.60;95.80
3648;DHT22;1840;48.892;15.312;2023-07-30T03:03:46;16.30;95.30
3648;DHT22;1840;48.892;15.312;2023-07-30T03:06:15;16.20;95.60
3648;DHT22;1840;48.892;15.312;2023-07-30T03:08:43;16.20;95.50
3648;DHT22;1840;48.892;15.312;2023-07-30T03:11:11;16.10;95.80
3648;DHT22;1840;48.892;15.312;2023-07-30T03:13:40;16.10;95.70
3648;DHT22;1840;48.892;15.312;2023-07-30T03:16:08;16.20;95.60
3648;DHT22;1840;48.892;15.312;2023-07-30T03:18:36;16.20;95.50
3648;DHT22;1840;48.892;15.312;2023-07-30T03:21:07;16.30;95.60
3648;DHT22;1840;48.892;15.312;2023-07-30T03:23:35;16.20;95.60
3648;DHT22;1840;48.892;15.312;2023-07-30T03:26:03;16.20;95.70
3648;DHT22;1840;48.892;15.312;2023-07-30T03:28:31;16.10;95.80
3648;DHT22;1840;48.892;15.312;2023-07-30T03:30:59;16.20;96.00
3648;DHT22;1840;48.892;15.312;2023-07-30T03:33:27;16.20;96.10
3648;DHT22;1840;48.892;15.312;2023-07-30T03:35:55;16.20;96.10
3648;DHT22;1840;48.892;15.312;2023-07-30T03:38:25;16.20;96.10
3648;DHT22;1840;48.892;15.312;2023-07-30T03:40:54;16.20;96.20
3648;DHT22;1840;48.892;15.312;2023-07-30T03:43:22;16.30;96.10
3648;DHT22;1840;48.892;15.312;2023-07-30T03:45:50;16.20;96.30
3648;DHT22;1840;48.892;15.312;2023-07-30T03:48:18;16.10;96.40
3648;DHT22;1840;48.892;15.312;2023-07-30T03:50:47;16.00;96.40
3648;DHT22;1840;48.892;15.312;2023-07-30T03:53:15;16.00;96.60
3648;DHT22;1840;48.892;15.312;2023-07-30T03:55:44;16.00;96.80
3648;DHT22;1840;48.892;15.312;2023-07-30T03:58:13;16.00;97.10
3648;DHT22;1840;48.892;15.312;2023-07-30T04:00:41;16.00;97.00
3648;DHT22;1840;48.892;15.312;2023-07-30T04:03:10;16.00;97.20
3648;DHT22;1840;48.892;15.312;2023-07-30T04:05:38;16.10;97.10
3648;DHT22;1840;48.892;15.312;2023-07-30T04:08:06;16.10;97.30
3648;DHT22;1840;48.892;15.312;2023-07-30T04:10:34;16.00;97.20
3648;DHT22;1840;48.892;15.312;2023-07-30T04:13:05;16.00;97.20
3648;DHT22;1840;48.892;15.312;2023-07-30T04:15:34;16.10;97.30
3648;DHT22;1840;48.892;15.312;2023-07-30T04:18:03;16.20;97.60
3648;DHT22;1840;48.892;15.312;2023-07-30T04:20:31;16.20;97.40
3648;DHT22;1840;48.892;15.312;2023-07-30T04:22:58;16.10;97.50
3648;DHT22;1840;48.892;15.312;2023-07-30T04:25:26;16.20;97.60
3648;DHT22;1840;48.892;15.312;2023-07-30T04:27:54;16.10;97.50
3648;DHT22;1840;48.892;15.312;2023-07-30T04:30:24;16.20;97.60
3648;DHT22;1840;48.892;15.312;2023-07-30T04:32:52;16.30;97.60
3648;DHT22;1840;48.892;15.312;2023-07-30T04:35:20;16.30;97.60
3648;DHT22;1840;48.892;15.312;2023-07-30T04:37:48;16.30;97.50
3648;DHT22;1840;48.892;15.312;2023-07-30T04:40:16;16.30;97.60
3648;DHT22;1840;48.892;15.312;2023-07-30T04:42:45;16.30;97.70
3648;DHT22;1840;48.892;15.312;2023-07-30T04:45:13;16.30;97.80
3648;DHT22;1840;48.892;15.312;2023-07-30T04:47:42;16.30;97.90
3648;DHT22;1840;48.892;15.312;2023-07-30T04:50:11;16.30;98.00
3648;DHT22;1840;48.892;15.312;2023-07-30T04:52:39;16.30;98.20
3648;DHT22;1840;48.892;15.312;2023-07-30T04:55:07;16.30;98.30
3648;DHT22;1840;48.892;15.312;2023-07-30T04:57:35;16.40;98.40
3648;DHT22;1840;48.892;15.312;2023-07-30T05:00:05;16.40;98.70
3648;DHT22;1840;48.892;15.312;2023-07-30T05:02:34;16.50;98.40
3648;DHT22;1840;48.892;15.312;2023-07-30T05:05:04;16.60;98.40
3648;DHT22;1840;48.892;15.312;2023-07-30T05:07:32;16.70;98.40
3648;DHT22;1840;48.892;15.312;2023-07-30T05:10:00;16.70;98.40
3648;DHT22;1840;48.892;15.312;2023-07-30T05:12:29;16.70;98.30
3648;DHT22;1840;48.892;15.312;2023-07-30T05:14:56;16.80;98.40
3648;DHT22;1840;48.892;15.312;2023-07-30T05:17:24;16.80;98.40
3648;DHT22;1840;48.892;15.312;2023-07-30T05:19:52;16.90;98.50
3648;DHT22;1840;48.892;15.312;2023-07-30T05:22:22;16.90;98.70
3648;DHT22;1840;48.892;15.312;2023-07-30T05:24:52;16.80;98.50
3648;DHT22;1840;48.892;15.312;2023-07-30T05:27:20;16.80;98.50
3648;DHT22;1840;48.892;15.312;2023-07-30T05:29:51;16.80;98.50
3648;DHT22;1840;48.892;15.312;2023-07-30T05:32:19;16.80;98.50
3648;DHT22;1840;48.892;15.312;2023-07-30T05:34:48;16.90;98.70
3648;DHT22;1840;48.892;15.312;2023-07-30T05:37:17;16.90;98.80
3648;DHT22;1840;48.892;15.312;2023-07-30T05:39:48;16.80;99.00
3648;DHT22;1840;48.892;15.312;2023-07-30T05:42:16;16.70;99.20
3648;DHT22;1840;48.892;15.312;2023-07-30T05:44:45;16.60;99.50
3648;DHT22;1840;48.892;15.312;2023-07-30T05:47:13;16.60;99.80
3648;DHT22;1840;48.892;15.312;2023-07-30T05:49:42;16.50;99.80
3648;DHT22;1840;48.892;15.312;2023-07-30T05:52:12;16.40;99.90
3648;DHT22;1840;48.892;15.312;2023-07-30T05:54:40;16.40;99.90
3648;DHT22;1840;48.892;15.312;2023-07-30T05:57:10;16.40;99.90
3648;DHT22;1840;48.892;15.312;2023-07-30T05:59:38;16.30;99.90
3648;DHT22;1840;48.892;15.312;2023-07-30T06:02:06;16.30;99.90
3648;DHT22;1840;48.892;15.312;2023-07-30T06:04:35;16.30;99.90
3648;DHT22;1840;48.892;15.312;2023-07-30T06:07:03;16.20;99.90
3648;DHT22;1840;48.892;15.312;2023-07-30T06:09:32;16.20;99.90
3648;DHT22;1840;48.892;15.312;2023-07-30T06:12:00;16.20;99.90
3648;DHT22;1840;48.892;15.312;2023-07-30T06:14:30;16.30;99.90
3648;DHT22;1840;48.892;15.312;2023-07-30T06:16:58;16.30;99.90
3648;DHT22;1840;48.892;15.312;2023-07-30T06:19:27;16.30;99.90
3648;DHT22;1840;48.892;15.312;2023-07-30T06:21:55;16.30;99.90
3648;DHT22;1840;48.892;15.312;2023-07-30T06:24:24;16.30;99.90
3648;DHT22;1840;48.892;15.312;2023-07-30T06:26:53;16.30;99.90
3648;DHT22;1840;48.892;15.312;2023-07-30T06:29:22;16.30;99.90
3648;DHT22;1840;48.892;15.312;2023-07-30T06:31:52;16.20;99.90
3648;DHT22;1840;48.892;15.312;2023-07-30T06:34:22;16.30;99.90
3648;DHT22;1840;48.892;15.312;2023-07-30T06:36:50;16.30;99.90
3648;DHT22;1840;48.892;15.312;2023-07-30T06:39:19;16.30;99.90
3648;DHT22;1840;48.892;15.312;2023-07-30T06:41:48;16.30;99.90
3648;DHT22;1840;48.892;15.312;2023-07-30T06:44:16;16.30;99.90
3648;DHT22;1840;48.892;15.312;2023-07-30T06:46:45;16.30;99.90
3648;DHT22;1840;48.892;15.312;2023-07-30T06:49:14;16.30;99.90
3648;DHT22;1840;48.892;15.312;2023-07-30T06:51:42;16.40;99.90
3648;DHT22;1840;48.892;15.312;2023-07-30T06:54:10;16.40;99.90
3648;DHT22;1840;48.892;15.312;2023-07-30T06:56:38;16.40;99.90
3648;DHT22;1840;48.892;15.312;2023-07-30T06:59:07;16.30;99.90
3648;DHT22;1840;48.892;15.312;2023-07-30T07:01:35;16.40;99.90
3648;DHT22;1840;48.892;15.312;2023-07-30T07:04:03;16.50;99.90
3648;DHT22;1840;48.892;15.312;2023-07-30T07:06:33;16.40;99.90
3648;DHT22;1840;48.892;15.312;2023-07-30T07:09:02;16.50;99.90
3648;DHT22;1840;48.892;15.312;2023-07-30T07:11:30;16.60;99.90
3648;DHT22;1840;48.892;15.312;2023-07-30T07:13:58;16.60;99.90
3648;DHT22;1840;48.892;15.312;2023-07-30T07:16:27;16.60;99.90
3648;DHT22;1840;48.892;15.312;2023-07-30T07:18:56;16.60;99.90
3648;DHT22;1840;48.892;15.312;2023-07-30T07:21:24;16.70;99.90
3648;DHT22;1840;48.892;15.312;2023-07-30T07:23:54;16.70;99.90
3648;DHT22;1840;48.892;15.312;2023-07-30T07:26:23;16.70;99.90
3648;DHT22;1840;48.892;15.312;2023-07-30T07:28:51;16.70;99.90
3648;DHT22;1840;48.892;15.312;2023-07-30T07:31:19;16.70;99.90
3648;DHT22;1840;48.892;15.312;2023-07-30T07:33:47;16.70;99.90
3648;DHT22;1840;48.892;15.312;2023-07-30T07:36:16;16.70;99.90
3648;DHT22;1840;48.892;15.312;2023-07-30T07:38:44;16.70;99.90
3648;DHT22;1840;48.892;15.312;2023-07-30T07:41:16;16.80;99.90
3648;DHT22;1840;48.892;15.312;2023-07-30T07:43:45;16.90;99.90
3648;DHT22;1840;48.892;15.312;2023-07-30T07:46:14;16.90;99.90
3648;DHT22;1840;48.892;15.312;2023-07-30T07:48:43;16.90;99.90
3648;DHT22;1840;48.892;15.312;2023-07-30T07:51:12;17.00;99.90
3648;DHT22;1840;48.892;15.312;2023-07-30T07:53:40;17.00;99.90
3648;DHT22;1840;48.892;15.312;2023-07-30T07:56:08;17.00;99.90
3648;DHT22;1840;48.892;15.312;2023-07-30T07:58:38;17.00;99.90
3648;DHT22;1840;48.892;15.312;2023-07-30T08:01:06;17.10;99.90
3648;DHT22;1840;48.892;15.312;2023-07-30T08:03:34;17.20;99.90
3648;DHT22;1840;48.892;15.312;2023-07-30T08:06:02;17.00;99.90
3648;DHT22;1840;48.892;15.312;2023-07-30T08:08:30;16.80;99.90
3648;DHT22;1840;48.892;15.312;2023-07-30T08:10:58;16.80;99.90
3648;DHT22;1840;48.892;15.312;2023-07-30T08:13:32;16.80;99.90
3648;DHT22;1840;48.892;15.312;2023-07-30T08:16:01;16.90;99.90
3648;DHT22;1840;48.892;15.312;2023-07-30T08:18:30;16.90;99.90
3648;DHT22;1840;48.892;15.312;2023-07-30T08:20:59;17.00;99.90
3648;DHT22;1840;48.892;15.312;2023-07-30T08:23:27;17.10;99.90
3648;DHT22;1840;48.892;15.312;2023-07-30T08:25:55;17.20;99.90
3648;DHT22;1840;48.892;15.312;2023-07-30T08:28:23;17.20;99.90
3648;DHT22;1840;48.892;15.312;2023-07-30T08:30:51;17.30;99.90
3648;DHT22;1840;48.892;15.312;2023-07-30T08:33:21;17.30;99.90
3648;DHT22;1840;48.892;15.312;2023-07-30T08:35:49;17.30;99.90
3648;DHT22;1840;48.892;15.312;2023-07-30T08:38:18;17.20;99.90
3648;DHT22;1840;48.892;15.312;2023-07-30T08:40:47;17.10;99.90
3648;DHT22;1840;48.892;15.312;2023-07-30T08:43:15;16.90;99.90
3648;DHT22;1840;48.892;15.312;2023-07-30T08:45:43;16.70;99.90
3648;DHT22;1840;48.892;15.312;2023-07-30T08:48:12;16.70;99.90
3648;DHT22;1840;48.892;15.312;2023-07-30T08:50:42;16.60;99.90
3648;DHT22;1840;48.892;15.312;2023-07-30T08:53:11;16.50;99.90
3648;DHT22;1840;48.892;15.312;2023-07-30T08:55:41;16.60;99.90
3648;DHT22;1840;48.892;15.312;2023-07-30T08:58:09;16.60;99.90
3648;DHT22;1840;48.892;15.312;2023-07-30T09:00:38;16.40;99.90
3648;DHT22;1840;48.892;15.312;2023-07-30T09:03:09;16.30;99.90
3648;DHT22;1840;48.892;15.312;2023-07-30T09:05:38;16.30;99.90
3648;DHT22;1840;48.892;15.312;2023-07-30T09:08:08;16.30;99.90
3648;DHT22;1840;48.892;15.312;2023-07-30T09:10:37;16.20;99.90
3648;DHT22;1840;48.892;15.312;2023-07-30T09:13:05;16.30;99.90
3648;DHT22;1840;48.892;15.312;2023-07-30T09:15:36;16.20;99.90
3648;DHT22;1840;48.892;15.312;2023-07-30T09:18:06;16.10;99.90
3648;DHT22;1840;48.892;15.312;2023-07-30T09:20:39;16.10;99.90
3648;DHT22;1840;48.892;15.312;2023-07-30T09:23:10;16.00;99.90
3648;DHT22;1840;48.892;15.312;2023-07-30T09:25:38;16.10;99.90
3648;DHT22;1840;48.892;15.312;2023-07-30T09:28:06;16.00;99.90
3648;DHT22;1840;48.892;15.312;2023-07-30T09:30:35;16.10;99.90
3648;DHT22;1840;48.892;15.312;2023-07-30T09:33:03;16.30;99.90
3648;DHT22;1840;48.892;15.312;2023-07-30T09:35:33;16.30;99.90
3648;DHT22;1840;48.892;15.312;2023-07-30T09:38:02;16.60;99.90
3648;DHT22;1840;48.892;15.312;2023-07-30T09:40:33;16.50;99.90
3648;DHT22;1840;48.892;15.312;2023-07-30T09:43:03;16.50;99.90
3648;DHT22;1840;48.892;15.312;2023-07-30T09:45:34;16.30;99.90
3648;DHT22;1840;48.892;15.312;2023-07-30T09:48:04;16.40;99.90
3648;DHT22;1840;48.892;15.312;2023-07-30T09:50:33;16.30;99.90
3648;DHT22;1840;48.892;15.312;2023-07-30T09:53:02;16.30;99.90
3648;DHT22;1840;48.892;15.312;2023-07-30T09:55:33;16.40;99.90
3648;DHT22;1840;48.892;15.312;2023-07-30T09:58:01;16.40;99.90
3648;DHT22;1840;48.892;15.312;2023-07-30T10:00:29;16.30;99.90
3648;DHT22;1840;48.892;15.312;2023-07-30T10:02:58;16.40;99.90
3648;DHT22;1840;48.892;15.312;2023-07-30T10:05:33;16.50;99.90
3648;DHT22;1840;48.892;15.312;2023-07-30T10:08:07;16.80;99.90
3648;DHT22;1840;48.892;15.312;2023-07-30T10:10:38;17.20;99.90
3648;DHT22;1840;48.892;15.312;2023-07-30T10:13:08;17.00;99.90
3648;DHT22;1840;48.892;15.312;2023-07-30T10:15:38;17.00;99.90
3648;DHT22;1840;48.892;15.312;2023-07-30T10:18:06;17.30;99.90
3648;DHT22;1840;48.892;15.312;2023-07-30T10:20:36;17.50;99.90
3648;DHT22;1840;48.892;15.312;2023-07-30T10:23:05;17.60;99.90
3648;DHT22;1840;48.892;15.312;2023-07-30T10:25:45;17.70;99.90
3648;DHT22;1840;48.892;15.312;2023-07-30T10:28:33;17.90;99.90
3648;DHT22;1840;48.892;15.312;2023-07-30T10:31:06;18.00;99.90
3648;DHT22;1840;48.892;15.312;2023-07-30T10:33:47;18.10;99.90
3648;DHT22;1840;48.892;15.312;2023-07-30T10:36:18;18.00;99.90
3648;DHT22;1840;48.892;15.312;2023-07-30T10:38:46;18.20;99.90
3648;DHT22;1840;48.892;15.312;2023-07-30T10:41:16;18.20;99.90
3648;DHT22;1840;48.892;15.312;2023-07-30T10:43:47;18.60;99.90
3648;DHT22;1840;48.892;15.312;2023-07-30T10:46:17;18.70;99.90
3648;DHT22;1840;48.892;15.312;2023-07-30T10:48:47;18.90;99.70
3648;DHT22;1840;48.892;15.312;2023-07-30T10:51:17;19.00;99.80
3648;DHT22;1840;48.892;15.312;2023-07-30T10:53:45;19.00;99.90
3648;DHT22;1840;48.892;15.312;2023-07-30T10:56:18;19.00;99.90
3648;DHT22;1840;48.892;15.312;2023-07-30T10:58:49;19.30;99.60
3648;DHT22;1840;48.892;15.312;2023-07-30T11:01:18;19.10;99.90
3648;DHT22;1840;48.892;15.312;2023-07-30T11:03:49;19.40;99.90
3648;DHT22;1840;48.892;15.312;2023-07-30T11:06:22;19.50;99.90
3648;DHT22;1840;48.892;15.312;2023-07-30T11:08:51;19.50;99.60
3648;DHT22;1840;48.892;15.312;2023-07-30T11:11:20;19.40;98.20
3648;DHT22;1840;48.892;15.312;2023-07-30T11:13:51;19.30;99.20
3648;DHT22;1840;48.892;15.312;2023-07-30T11:16:19;19.50;97.80
3648;DHT22;1840;48.892;15.312;2023-07-30T11:18:47;19.60;99.40
3648;DHT22;1840;48.892;15.312;2023-07-30T11:21:17;19.50;97.70
3648;DHT22;1840;48.892;15.312;2023-07-30T11:23:45;19.50;96.80
3648;DHT22;1840;48.892;15.312;2023-07-30T11:26:15;19.50;96.50
3648;DHT22;1840;48.892;15.312;2023-07-30T11:28:45;19.50;98.10
3648;DHT22;1840;48.892;15.312;2023-07-30T11:31:15;19.80;98.00
3648;DHT22;1840;48.892;15.312;2023-07-30T11:33:47;20.00;98.60
3648;DHT22;1840;48.892;15.312;2023-07-30T11:36:17;20.10;96.20
3648;DHT22;1840;48.892;15.312;2023-07-30T11:38:46;20.20;96.60
3648;DHT22;1840;48.892;15.312;2023-07-30T11:41:15;20.20;97.00
3648;DHT22;1840;48.892;15.312;2023-07-30T11:43:45;20.30;97.20
3648;DHT22;1840;48.892;15.312;2023-07-30T11:46:14;20.40;97.00
3648;DHT22;1840;48.892;15.312;2023-07-30T11:48:44;20.50;98.00
3648;DHT22;1840;48.892;15.312;2023-07-30T11:51:20;20.70;96.90
3648;DHT22;1840;48.892;15.312;2023-07-30T11:53:50;20.60;96.00
3648;DHT22;1840;48.892;15.312;2023-07-30T11:56:20;20.70;96.90
3648;DHT22;1840;48.892;15.312;2023-07-30T11:58:53;20.70;96.70
3648;DHT22;1840;48.892;15.312;2023-07-30T12:01:23;20.70;97.20
3648;DHT22;1840;48.892;15.312;2023-07-30T12:03:54;20.80;97.10
3648;DHT22;1840;48.892;15.312;2023-07-30T12:06:23;20.80;96.30
3648;DHT22;1840;48.892;15.312;2023-07-30T12:08:52;21.00;96.70
3648;DHT22;1840;48.892;15.312;2023-07-30T12:11:20;20.80;95.50
3648;DHT22;1840;48.892;15.312;2023-07-30T12:13:49;20.90;94.80
3648;DHT22;1840;48.892;15.312;2023-07-30T12:16:18;20.90;94.10
3648;DHT22;1840;48.892;15.312;2023-07-30T12:18:48;20.90;94.50
3648;DHT22;1840;48.892;15.312;2023-07-30T12:21:16;21.20;93.60
3648;DHT22;1840;48.892;15.312;2023-07-30T12:23:44;21.50;93.70
3648;DHT22;1840;48.892;15.312;2023-07-30T12:26:15;21.30;94.10
3648;DHT22;1840;48.892;15.312;2023-07-30T12:28:45;21.70;95.00
3648;DHT22;1840;48.892;15.312;2023-07-30T12:31:16;21.70;94.00
3648;DHT22;1840;48.892;15.312;2023-07-30T12:33:47;21.60;94.40
3648;DHT22;1840;48.892;15.312;2023-07-30T12:36:17;21.50;94.10
3648;DHT22;1840;48.892;15.312;2023-07-30T12:38:47;21.60;94.60
3648;DHT22;1840;48.892;15.312;2023-07-30T12:41:16;21.70;94.30
3648;DHT22;1840;48.892;15.312;2023-07-30T12:43:45;21.70;93.10
3648;DHT22;1840;48.892;15.312;2023-07-30T12:46:13;21.70;93.10
3648;DHT22;1840;48.892;15.312;2023-07-30T12:48:43;21.90;92.40
3648;DHT22;1840;48.892;15.312;2023-07-30T12:51:11;21.80;92.30
3648;DHT22;1840;48.892;15.312;2023-07-30T12:53:46;21.70;92.60
3648;DHT22;1840;48.892;15.312;2023-07-30T12:56:15;21.50;92.70
3648;DHT22;1840;48.892;15.312;2023-07-30T12:58:43;21.20;92.80
3648;DHT22;1840;48.892;15.312;2023-07-30T13:01:11;21.00;93.10
3648;DHT22;1840;48.892;15.312;2023-07-30T13:03:40;20.90;93.50
3648;DHT22;1840;48.892;15.312;2023-07-30T13:06:13;20.80;94.10
3648;DHT22;1840;48.892;15.312;2023-07-30T13:08:41;20.90;93.80
3648;DHT22;1840;48.892;15.312;2023-07-30T13:11:10;21.00;93.70
3648;DHT22;1840;48.892;15.312;2023-07-30T13:13:38;21.00;93.50
3648;DHT22;1840;48.892;15.312;2023-07-30T13:16:06;20.70;93.70
3648;DHT22;1840;48.892;15.312;2023-07-30T13:18:34;20.80;93.80
3648;DHT22;1840;48.892;15.312;2023-07-30T13:21:03;20.90;94.10
3648;DHT22;1840;48.892;15.312;2023-07-30T13:23:32;20.90;94.10
3648;DHT22;1840;48.892;15.312;2023-07-30T13:26:00;20.90;94.10
3648;DHT22;1840;48.892;15.312;2023-07-30T13:28:29;20.90;93.70
3648;DHT22;1840;48.892;15.312;2023-07-30T13:30:57;20.90;93.50
3648;DHT22;1840;48.892;15.312;2023-07-30T13:33:26;20.90;93.50
3648;DHT22;1840;48.892;15.312;2023-07-30T13:35:54;20.80;93.30
3648;DHT22;1840;48.892;15.312;2023-07-30T13:38:22;20.80;93.60
3648;DHT22;1840;48.892;15.312;2023-07-30T13:40:55;20.90;93.70
3648;DHT22;1840;48.892;15.312;2023-07-30T13:43:24;20.90;94.00
3648;DHT22;1840;48.892;15.312;2023-07-30T13:45:53;20.90;94.00
3648;DHT22;1840;48.892;15.312;2023-07-30T13:48:22;20.80;93.50
3648;DHT22;1840;48.892;15.312;2023-07-30T13:50:50;20.70;93.60
3648;DHT22;1840;48.892;15.312;2023-07-30T13:53:18;20.70;93.40
3648;DHT22;1840;48.892;15.312;2023-07-30T13:55:46;20.50;93.00
3648;DHT22;1840;48.892;15.312;2023-07-30T13:58:16;20.50;92.90
3648;DHT22;1840;48.892;15.312;2023-07-30T14:00:44;20.40;93.10
3648;DHT22;1840;48.892;15.312;2023-07-30T14:03:13;20.40;93.10
3648;DHT22;1840;48.892;15.312;2023-07-30T14:05:41;20.40;93.00
3648;DHT22;1840;48.892;15.312;2023-07-30T14:08:09;20.40;93.50
3648;DHT22;1840;48.892;15.312;2023-07-30T14:10:38;20.50;93.60
3648;DHT22;1840;48.892;15.312;2023-07-30T14:13:08;20.50;93.50
3648;DHT22;1840;48.892;15.312;2023-07-30T14:15:39;20.60;93.60
3648;DHT22;1840;48.892;15.312;2023-07-30T14:18:09;20.50;93.50
3648;DHT22;1840;48.892;15.312;2023-07-30T14:20:38;20.60;93.70
3648;DHT22;1840;48.892;15.312;2023-07-30T14:23:07;20.60;93.20
3648;DHT22;1840;48.892;15.312;2023-07-30T14:25:35;20.50;93.20
3648;DHT22;1840;48.892;15.312;2023-07-30T14:28:03;20.70;93.70
3648;DHT22;1840;48.892;15.312;2023-07-30T14:30:31;21.10;94.00
3648;DHT22;1840;48.892;15.312;2023-07-30T14:33:02;21.50;93.50
3648;DHT22;1840;48.892;15.312;2023-07-30T14:35:31;21.70;93.80
3648;DHT22;1840;48.892;15.312;2023-07-30T14:37:59;21.90;93.10
3648;DHT22;1840;48.892;15.312;2023-07-30T14:40:27;21.90;92.70
3648;DHT22;1840;48.892;15.312;2023-07-30T14:42:55;21.90;92.20
3648;DHT22;1840;48.892;15.312;2023-07-30T14:45:24;21.80;91.80
3648;DHT22;1840;48.892;15.312;2023-07-30T14:47:52;21.60;91.70
3648;DHT22;1840;48.892;15.312;2023-07-30T14:50:22;21.50;92.30
3648;DHT22;1840;48.892;15.312;2023-07-30T14:52:50;21.40;92.40
3648;DHT22;1840;48.892;15.312;2023-07-30T14:55:18;21.40;92.50
3648;DHT22;1840;48.892;15.312;2023-07-30T14:57:46;21.40;92.90
3648;DHT22;1840;48.892;15.312;2023-07-30T15:00:14;21.40;92.70
3648;DHT22;1840;48.892;15.312;2023-07-30T15:02:43;21.40;93.30
3648;DHT22;1840;48.892;15.312;2023-07-30T15:05:11;21.60;93.40
3648;DHT22;1840;48.892;15.312;2023-07-30T15:07:41;21.70;92.90
3648;DHT22;1840;48.892;15.312;2023-07-30T15:10:10;21.80;91.70
3648;DHT22;1840;48.892;15.312;2023-07-30T15:12:38;21.60;92.20
3648;DHT22;1840;48.892;15.312;2023-07-30T15:15:07;21.50;92.50
3648;DHT22;1840;48.892;15.312;2023-07-30T15:17:35;21.40;92.00
3648;DHT22;1840;48.892;15.312;2023-07-30T15:20:04;21.20;92.20
3648;DHT22;1840;48.892;15.312;2023-07-30T15:22:32;21.30;92.40
3648;DHT22;1840;48.892;15.312;2023-07-30T15:25:02;21.40;92.40
3648;DHT22;1840;48.892;15.312;2023-07-30T15:27:31;21.30;92.80
3648;DHT22;1840;48.892;15.312;2023-07-30T15:29:59;21.50;92.50
3648;DHT22;1840;48.892;15.312;2023-07-30T15:32:28;21.40;91.90
3648;DHT22;1840;48.892;15.312;2023-07-30T15:34:57;21.40;92.30
3648;DHT22;1840;48.892;15.312;2023-07-30T15:37:25;21.10;92.20
3648;DHT22;1840;48.892;15.312;2023-07-30T15:39:53;21.10;92.70
3648;DHT22;1840;48.892;15.312;2023-07-30T15:42:22;21.50;92.00
3648;DHT22;1840;48.892;15.312;2023-07-30T15:44:50;21.60;93.00
3648;DHT22;1840;48.892;15.312;2023-07-30T15:47:18;21.70;91.30
3648;DHT22;1840;48.892;15.312;2023-07-30T15:49:46;21.40;91.50
3648;DHT22;1840;48.892;15.312;2023-07-30T15:52:14;21.40;91.30
3648;DHT22;1840;48.892;15.312;2023-07-30T15:54:42;21.30;91.00